Impacts METAR Board INFO
IDs:

KSTL - St Louis/Lambert Int, MO, US

Updated at: 2054 UTC 13 Dec 2017
Potential Impact None Slight Moderate High
Time13/08Z 13/09Z 13/10Z 13/11Z 13/12Z 13/13Z 13/14Z 13/15Z 13/16Z 13/17Z 13/18Z 13/19Z 13/20Z
VIS10 10 10 10 10 10 10 10 10 10 10 10 10
CIG-- -- -- -- -- -- -- 250 -- 200 200 -- --
CoverCLRFEWFEWCLRCLRFEWFEWBKNSCTBKNBKNFEWFEW
FltCatVFRVFRVFRVFRVFRVFRVFRVFRVFRVFRVFRVFRVFR
WX--------------------------
WDir220210210190180180190200220250260270280
WSpd8 10 7 9 10 7 9 12 14 18 16 19 30
WGst-- -- -- -- -- -- -- 18 23 30 26 28 39
Raw hourly METARs
KSTL 130751Z 22008KT 10SM CLR M02/M13 A2996 RMK AO2 SLP155 T10171128
KSTL 130851Z 21010KT 10SM FEW090 M02/M12 A2993 RMK AO2 SLP143 T10171122 58032
KSTL 130951Z 21007KT 10SM FEW090 M01/M11 A2988 RMK AO2 SLP127 T10111106
KSTL 131051Z 19009KT 10SM CLR M01/M09 A2983 RMK AO2 SLP111 T10061089
KSTL 131151Z 18010KT 10SM CLR 00/M08 A2978 RMK AO2 SLP093 T00001078 10006 21028 58050
KSTL 131251Z 18007KT 10SM FEW250 M01/M08 A2975 RMK AO2 SLP083 T10111078
KSTL 131351Z 19009KT 10SM FEW150 FEW250 01/M07 A2970 RMK AO2 SLP066 T00061067
KSTL 131451Z 20012G18KT 10SM FEW110 BKN250 03/M07 A2964 RMK AO2 SLP045 T00331067 58045
KSTL 131551Z 22014G23KT 10SM FEW110 SCT250 07/M06 A2963 RMK AO2 SLP042 T00671061
KSTL 131651Z 25018G30KT 10SM FEW120 BKN200 09/M05 A2960 RMK AO2 PK WND 25030/1647 SLP029 T00941050
KSTL 131751Z 26016G26KT 10SM SCT130 BKN200 11/M03 A2960 RMK AO2 PK WND 25027/1658 SLP030 T01061033 10106 21011 55010
KSTL 131851Z 27019G28KT 10SM FEW110 FEW250 13/M02 A2956 RMK AO2 PK WND 27030/1841 SLP015 T01281022
KSTL 131951Z 28030G39KT 10SM FEW070 FEW250 14/M02 A2956 RMK AO2 PK WND 27039/1951 SLP014 T01391017